Chelan, WA

6:59 AM PST en Noviembre 24, 2014 (GMT -0800)
The Highlands | Change Station
CLOSE
Current Station
Estación meteorológica personal
Location: Chelan, WA
Altura: 1610 ft
Estaciones meteorológicas cercanas

Alt 1610 ft 47.86 °N, 120.04 °W | Updated 7 minutes ago

Parcialmente nublado
Parcialmente nublado
37.6 ° F
Sensación térmica 38 ° F
N
0.0
Viento Variable Viento desde Este
Gusts 1.0 mph

Hoy
Alta -- | Baja -- ° F
--% Posibilidad de precipitaciones
Ayer
Alta -- | Baja -- ° F
Precip. -- pul
7:19 AM 4:14 PM
Creciente, 5% visible
Presión 30.35 pul
Visibilidad 10.0 Millas
Nubes Despejado
Vientos helados 38 ° F
Punto de rocío 32 ° F
Humedad 80%
Precipitaciones 0.00 pul
Espesor de la nieve No disponible.
UV 0 de una escala de 12
Polen .10 de una escala de 12
Calidad del aire No disponible.
Flu Activity No disponible.
METAR KEAT 241455Z AUTO 30005KT 10SM CLR 02/M03 A3032 RMK AO2 SLP276 T00171028 51005

More Conditions Fewer Conditions

Presión 30.35 pul
Visibilidad 10.0 Millas
Nubes Despejado
Vientos helados 38 ° F
Punto de rocío 32 ° F
Humedad 80%
Precipitaciones 0.00 pul
Espesor de la nieve No disponible.
UV 0 de una escala de 12
Polen .10 de una escala de 12
Calidad del aire No disponible.
Flu Activity No disponible.
METAR KEAT 241455Z AUTO 30005KT 10SM CLR 02/M03 A3032 RMK AO2 SLP276 T00171028 51005

More Conditions Fewer Conditions

10-Day Weather Forecast

Almanac

Astronomía

Nov. 24, 2014 Salida Puesta
Hora real
Crepúsculo civil
Crepúsculo náutico
Crepúsculo astronómico
Luna
Horas de luz
Horas de luz
Tomorrow will be .
, % of the Moon is Illuminated

Extremos de hoy

Máximos del estado Bajos del estado

Community

WunderPhotos

Upload Photos

1,773,353 ¡fotos cargadas!

WunderBlogs® & News

Nearby

Calidad del aire

  Calidad del aire Índice AQ Contaminante
Not available.

Grosos de nieve

Estación Profundido Altura

Actividad de terremotos

Ciudad Distance Mag. Tiempo y dato
Magnitud mínima muestra es 2,5.

Temperaturas de aguas costeras

Lugar Temperatura

Estaciones meteorológicas cercanas